createdAt,value
2019-04-10T00:01:12.246Z,94.20
2019-04-10T00:03:42.496Z,94.40
2019-04-10T00:06:10.849Z,94.40
2019-04-10T00:08:39.611Z,94.40
2019-04-10T00:11:08.284Z,94.20
2019-04-10T00:13:36.969Z,94.20
2019-04-10T00:16:05.644Z,94.10
2019-04-10T00:18:34.167Z,94.00
2019-04-10T00:21:02.968Z,93.90
2019-04-10T00:23:31.738Z,93.80
2019-04-10T00:26:00.159Z,93.70
2019-04-10T00:28:29.692Z,93.60
2019-04-10T00:30:58.161Z,93.60
2019-04-10T00:33:27.109Z,93.60
2019-04-10T00:35:56.584Z,93.80
2019-04-10T00:38:26.029Z,93.90
2019-04-10T00:40:55.464Z,93.90
2019-04-10T00:43:24.621Z,93.90
2019-04-10T00:45:53.571Z,94.00
2019-04-10T00:48:22.341Z,94.10
2019-04-10T00:50:50.924Z,94.10
2019-04-10T00:53:19.394Z,93.90
2019-04-10T00:55:48.187Z,94.20
2019-04-10T00:58:16.922Z,94.20
2019-04-10T01:00:45.506Z,94.10
2019-04-10T01:03:15.981Z,94.10
2019-04-10T01:05:44.721Z,94.00
2019-04-10T01:08:13.409Z,93.90
2019-04-10T01:10:42.169Z,93.80
2019-04-10T01:13:10.672Z,93.70
2019-04-10T01:15:39.103Z,93.70
2019-04-10T01:18:07.770Z,93.60
2019-04-10T01:20:37.657Z,93.60
2019-04-10T01:23:06.525Z,93.60
2019-04-10T01:25:34.941Z,93.80
2019-04-10T01:28:03.408Z,93.70
2019-04-10T01:30:32.791Z,93.70
2019-04-10T01:33:01.330Z,93.70
2019-04-10T01:35:29.980Z,93.70
2019-04-10T01:38:02.348Z,93.70
2019-04-10T01:40:28.926Z,93.70
2019-04-10T01:43:08.172Z,93.80
2019-04-10T01:45:27.848Z,93.70
2019-04-10T01:47:56.491Z,93.60
2019-04-10T01:50:24.962Z,93.70
2019-04-10T01:52:53.642Z,93.70
2019-04-10T01:55:25.750Z,93.80
2019-04-10T01:57:52.719Z,93.70
2019-04-10T02:00:23.660Z,93.70
2019-04-10T02:02:53.908Z,93.70
2019-04-10T02:05:22.779Z,93.80
2019-04-10T02:08:02.119Z,93.70
2019-04-10T02:10:22.045Z,93.80
2019-04-10T02:12:50.839Z,93.90
2019-04-10T02:15:19.707Z,94.00
2019-04-10T02:17:48.726Z,94.00
2019-04-10T02:20:17.540Z,93.90
2019-04-10T02:22:46.312Z,93.90
2019-04-10T02:25:15.803Z,93.90
2019-04-10T02:27:44.758Z,94.00
2019-04-10T02:30:16.387Z,94.10
2019-04-10T02:32:47.723Z,94.10
2019-04-10T02:35:17.291Z,94.10
2019-04-10T02:37:44.183Z,94.00
2019-04-10T02:40:13.063Z,94.00
2019-04-10T02:42:43.084Z,93.70
2019-04-10T02:45:12.608Z,93.80
2019-04-10T02:47:43.147Z,93.80
2019-04-10T02:50:14.059Z,93.80
2019-04-10T02:52:43.333Z,93.90
2019-04-10T02:55:12.125Z,93.80
2019-04-10T02:57:41.354Z,93.90
2019-04-10T03:00:12.782Z,93.90
2019-04-10T03:02:41.719Z,93.90
2019-04-10T03:05:10.777Z,93.90
2019-04-10T03:07:40.351Z,93.90
2019-04-10T03:10:21.758Z,93.90
2019-04-10T03:12:41.062Z,94.00
2019-04-10T03:15:12.568Z,94.10
2019-04-10T03:17:42.058Z,94.00
2019-04-10T03:20:11.080Z,93.90
2019-04-10T03:22:39.517Z,93.90
2019-04-10T03:25:08.899Z,93.70
2019-04-10T03:27:38.547Z,93.60
2019-04-10T03:30:12.094Z,93.40
2019-04-10T03:32:50.236Z,93.30
2019-04-10T03:35:22.830Z,93.30
2019-04-10T03:37:51.433Z,93.20
2019-04-10T03:40:20.085Z,93.10
2019-04-10T03:42:49.431Z,93.10
2019-04-10T03:45:18.061Z,93.20
2019-04-10T03:47:47.354Z,93.20
2019-04-10T03:50:16.384Z,93.10
2019-04-10T03:52:45.346Z,93.10
2019-04-10T03:55:13.874Z,93.10
2019-04-10T03:57:42.814Z,93.10
2019-04-10T04:00:12.170Z,93.20
2019-04-10T04:02:40.759Z,93.20
2019-04-10T04:05:09.341Z,93.20
2019-04-10T04:07:38.890Z,93.10
2019-04-10T04:10:09.328Z,93.10
2019-04-10T04:12:37.675Z,93.00
2019-04-10T04:15:07.131Z,92.90
2019-04-10T04:17:36.066Z,92.80
2019-04-10T04:20:05.081Z,92.70
2019-04-10T04:22:33.793Z,92.70
2019-04-10T04:25:02.493Z,92.90
2019-04-10T04:27:31.009Z,93.00
2019-04-10T04:29:59.696Z,92.90
2019-04-10T04:32:28.133Z,92.90
2019-04-10T04:34:57.629Z,92.90
2019-04-10T04:37:26.052Z,92.90
2019-04-10T04:39:54.702Z,92.90
2019-04-10T04:42:23.165Z,99.90
2019-04-10T04:44:52.117Z,99.90
2019-04-10T04:47:20.649Z,93.00
2019-04-10T04:49:50.244Z,93.20
2019-04-10T04:52:39.099Z,92.90
2019-04-10T04:55:07.982Z,92.80
2019-04-10T04:57:38.052Z,92.70
2019-04-10T05:00:07.739Z,92.70
2019-04-10T05:02:37.213Z,92.70
2019-04-10T05:05:07.162Z,92.80
2019-04-10T05:07:35.811Z,93.20
2019-04-10T05:10:07.062Z,93.10
2019-04-10T05:12:36.000Z,93.00
2019-04-10T05:15:06.763Z,93.10
2019-04-10T05:17:35.226Z,93.10
2019-04-10T05:20:05.006Z,93.60
2019-04-10T05:22:34.041Z,93.50
2019-04-10T05:25:03.135Z,93.40
2019-04-10T05:27:31.561Z,93.30
2019-04-10T05:30:00.005Z,93.50
2019-04-10T05:32:28.457Z,93.50
2019-04-10T05:34:56.889Z,93.50
2019-04-10T05:37:25.726Z,93.50
2019-04-10T05:39:55.307Z,93.30
2019-04-10T05:42:24.799Z,93.20
2019-04-10T05:44:53.426Z,92.90
2019-04-10T05:47:21.848Z,92.90
2019-04-10T05:49:50.262Z,92.80
2019-04-10T05:52:18.681Z,92.70
2019-04-10T05:54:47.342Z,92.90
2019-04-10T05:57:15.896Z,93.00
2019-04-10T05:59:44.316Z,92.90
2019-04-10T06:02:13.836Z,92.70
2019-04-10T06:04:43.276Z,92.70
2019-04-10T06:07:12.743Z,92.70
2019-04-10T06:09:51.982Z,93.00
2019-04-10T06:12:11.855Z,92.80
2019-04-10T06:14:40.373Z,92.60
2019-04-10T06:17:09.965Z,92.30
2019-04-10T06:19:38.635Z,92.00
2019-04-10T06:22:09.618Z,92.20
2019-04-10T06:24:38.470Z,92.10
2019-04-10T06:27:08.115Z,91.80
2019-04-10T06:29:37.183Z,91.30
2019-04-10T06:32:05.733Z,91.20
2019-04-10T06:34:34.312Z,91.10
2019-04-10T06:37:03.934Z,90.50
2019-04-10T06:39:33.098Z,89.30
2019-04-10T06:42:02.530Z,87.50
2019-04-10T06:44:32.112Z,86.90
2019-04-10T06:47:02.081Z,85.70
2019-04-10T06:49:31.103Z,85.90
2019-04-10T06:51:59.962Z,86.00
2019-04-10T06:54:28.883Z,86.30
2019-04-10T06:56:58.587Z,86.30
2019-04-10T06:59:28.240Z,85.40
2019-04-10T07:02:05.639Z,85.50
2019-04-10T07:04:27.061Z,84.00
2019-04-10T07:07:01.809Z,83.60
2019-04-10T07:09:27.069Z,84.30
2019-04-10T07:11:59.843Z,84.20
2019-04-10T07:14:26.781Z,84.50
2019-04-10T07:17:01.674Z,83.80
2019-04-10T07:19:26.190Z,83.20
2019-04-10T07:21:55.481Z,81.20
2019-04-10T07:24:25.190Z,81.20
2019-04-10T07:26:53.601Z,81.30
2019-04-10T07:29:26.756Z,81.20
2019-04-10T07:31:52.903Z,79.40
2019-04-10T07:34:25.561Z,80.70
2019-04-10T07:36:51.988Z,80.40
2019-04-10T07:39:21.427Z,79.50
2019-04-10T07:41:50.104Z,78.60
2019-04-10T07:44:18.914Z,78.40
2019-04-10T07:46:48.749Z,78.30
2019-04-10T07:49:19.334Z,77.60
2019-04-10T07:51:49.021Z,77.10
2019-04-10T07:54:20.827Z,76.50
2019-04-10T07:56:47.888Z,76.50
2019-04-10T07:59:16.554Z,75.80
2019-04-10T08:01:45.251Z,75.90
2019-04-10T08:04:14.577Z,73.20
2019-04-10T08:06:43.194Z,71.20
2019-04-10T08:09:12.548Z,72.20
2019-04-10T08:11:41.026Z,70.10
2019-04-10T08:14:10.576Z,69.30
2019-04-10T08:16:39.356Z,70.60
2019-04-10T08:19:08.305Z,70.70
2019-04-10T08:21:38.020Z,69.30
2019-04-10T08:24:07.384Z,69.80
2019-04-10T08:26:36.655Z,70.30
2019-04-10T08:29:05.716Z,69.50
2019-04-10T08:31:34.372Z,69.90
2019-04-10T08:34:03.327Z,70.00
2019-04-10T08:36:31.937Z,70.20
2019-04-10T08:39:00.361Z,70.80
2019-04-10T08:41:29.657Z,71.70
2019-04-10T08:43:58.888Z,73.00
2019-04-10T08:46:28.136Z,73.90
2019-04-10T08:48:58.006Z,74.70
2019-04-10T08:51:27.588Z,75.00
2019-04-10T08:53:56.816Z,75.70
2019-04-10T08:56:25.564Z,74.90
2019-04-10T08:58:55.036Z,74.50
2019-04-10T09:01:23.600Z,75.60
2019-04-10T09:03:52.013Z,75.80
2019-04-10T09:06:20.726Z,77.00
2019-04-10T09:08:49.489Z,77.70
2019-04-10T09:11:24.666Z,79.30
2019-04-10T09:13:48.626Z,79.60
2019-04-10T09:16:18.296Z,78.10
2019-04-10T09:18:47.625Z,76.70
2019-04-10T09:21:17.445Z,77.20
2019-04-10T09:23:52.436Z,78.10
2019-04-10T09:26:16.413Z,78.00
2019-04-10T09:28:45.127Z,78.60
2019-04-10T09:31:13.655Z,78.40
2019-04-10T09:33:43.140Z,77.80
2019-04-10T09:36:13.124Z,76.70
2019-04-10T09:38:43.838Z,76.00
2019-04-10T09:41:12.242Z,75.30
2019-04-10T09:43:42.070Z,76.30
2019-04-10T09:46:11.260Z,76.10
2019-04-10T09:48:40.156Z,76.50
2019-04-10T09:51:09.761Z,76.80
2019-04-10T09:53:39.278Z,77.00
2019-04-10T09:56:07.727Z,77.70
2019-04-10T09:58:36.409Z,78.60
2019-04-10T10:01:08.334Z,78.80
2019-04-10T10:03:36.830Z,77.80
2019-04-10T10:06:05.252Z,76.30
2019-04-10T10:08:33.890Z,79.50
2019-04-10T10:11:02.368Z,79.60
2019-04-10T10:13:31.848Z,80.50
2019-04-10T10:16:00.826Z,80.50
2019-04-10T10:18:29.765Z,81.30
2019-04-10T10:20:58.345Z,80.20
2019-04-10T10:23:27.630Z,79.30
2019-04-10T10:25:56.410Z,78.10
2019-04-10T10:28:24.961Z,77.60
2019-04-10T10:30:53.674Z,77.70
2019-04-10T10:33:22.130Z,75.90
2019-04-10T10:35:51.548Z,76.60
2019-04-10T10:38:21.098Z,77.70
2019-04-10T10:40:50.732Z,76.20
2019-04-10T10:43:20.436Z,75.60
2019-04-10T10:45:49.298Z,76.40
2019-04-10T10:48:17.757Z,76.50
2019-04-10T10:50:46.245Z,75.00
2019-04-10T10:53:14.883Z,75.30
2019-04-10T10:55:43.369Z,75.00
2019-04-10T10:58:11.793Z,75.00
2019-04-10T11:00:41.122Z,73.20
2019-04-10T11:03:09.939Z,73.00
2019-04-10T11:05:38.496Z,74.10
2019-04-10T11:08:07.169Z,73.20
2019-04-10T11:10:35.798Z,72.40
2019-04-10T11:13:04.330Z,70.80
2019-04-10T11:15:34.069Z,70.20
2019-04-10T11:18:02.743Z,70.70
2019-04-10T11:20:32.207Z,70.40
2019-04-10T11:23:01.771Z,70.80
2019-04-10T11:25:30.320Z,70.10
2019-04-10T11:28:00.076Z,70.40
2019-04-10T11:30:28.838Z,72.60
2019-04-10T11:32:58.255Z,73.20
2019-04-10T11:35:27.046Z,73.00
2019-04-10T11:37:59.077Z,72.50
2019-04-10T11:40:26.726Z,71.40
2019-04-10T11:42:57.478Z,71.80
2019-04-10T11:45:30.667Z,71.70
2019-04-10T11:47:56.540Z,72.30
2019-04-10T11:50:25.675Z,72.90
2019-04-10T11:52:56.749Z,71.20
2019-04-10T11:55:26.138Z,72.20
2019-04-10T11:57:55.400Z,72.20
2019-04-10T12:00:47.589Z,72.30
2019-04-10T12:03:10.462Z,72.70
2019-04-10T12:05:41.394Z,71.90
2019-04-10T12:08:32.280Z,71.40
2019-04-10T12:13:10.935Z,72.10
2019-04-10T12:15:39.353Z,73.50
2019-04-10T12:18:08.629Z,72.70
2019-04-10T12:20:37.725Z,72.80
2019-04-10T12:23:06.238Z,72.40
2019-04-10T12:25:34.774Z,73.00
2019-04-10T12:28:03.412Z,73.40
2019-04-10T12:30:31.888Z,73.00
2019-04-10T12:33:01.098Z,73.70
2019-04-10T12:35:29.791Z,73.10
2019-04-10T12:38:02.938Z,73.10
2019-04-10T12:40:28.813Z,72.90
2019-04-10T12:42:57.232Z,72.90
2019-04-10T12:45:26.453Z,71.70
2019-04-10T12:47:55.091Z,71.80
2019-04-10T12:50:24.743Z,71.30
2019-04-10T12:52:53.295Z,71.00
2019-04-10T12:55:21.772Z,70.50
2019-04-10T12:57:51.019Z,70.50
2019-04-10T13:00:23.810Z,70.00
2019-04-10T13:02:52.536Z,70.60
2019-04-10T13:05:21.344Z,70.60
2019-04-10T13:07:49.825Z,69.30
2019-04-10T13:10:18.491Z,69.30
2019-04-10T13:12:47.325Z,67.50
2019-04-10T13:15:16.014Z,66.80
2019-04-10T13:17:44.820Z,65.30
2019-04-10T13:20:13.875Z,65.10
2019-04-10T13:22:42.396Z,64.00
2019-04-10T13:25:12.281Z,63.80
2019-04-10T13:27:41.153Z,62.20
2019-04-10T13:30:13.057Z,61.70
2019-04-10T13:32:42.443Z,61.30
2019-04-10T13:35:11.257Z,60.00
2019-04-10T13:37:39.761Z,60.60
2019-04-10T13:40:08.425Z,61.50
2019-04-10T13:42:37.270Z,60.20
2019-04-10T13:45:07.551Z,59.60
2019-04-10T13:47:35.999Z,60.20
2019-04-10T13:50:06.598Z,61.80
2019-04-10T13:52:36.713Z,61.50
2019-04-10T13:55:08.481Z,61.60
2019-04-10T13:57:37.508Z,62.80
2019-04-10T14:00:09.273Z,62.90
2019-04-10T14:02:37.833Z,63.10
2019-04-10T14:05:10.104Z,64.90
2019-04-10T14:07:38.573Z,64.40
2019-04-10T14:10:08.101Z,65.10
2019-04-10T14:12:37.073Z,65.30
2019-04-10T14:15:06.291Z,65.70
2019-04-10T14:17:35.340Z,66.70
2019-04-10T14:20:04.971Z,66.60
2019-04-10T14:22:35.106Z,66.80
2019-04-10T14:25:04.953Z,67.10
2019-04-10T14:27:37.093Z,68.20
2019-04-10T14:30:09.291Z,66.70
2019-04-10T14:32:37.932Z,67.50
2019-04-10T14:35:08.622Z,66.70
2019-04-10T14:37:37.962Z,66.80
2019-04-10T14:40:08.889Z,66.00
2019-04-10T14:42:38.407Z,66.60
2019-04-10T14:45:07.568Z,67.00
2019-04-10T14:47:36.223Z,65.60
2019-04-10T14:50:05.871Z,66.00
2019-04-10T14:52:34.946Z,65.20
2019-04-10T14:55:04.063Z,65.40
2019-04-10T14:57:32.980Z,65.60
2019-04-10T15:00:01.553Z,66.50
2019-04-10T15:02:30.705Z,66.90
2019-04-10T15:04:59.541Z,66.70
2019-04-10T15:07:28.972Z,66.80
2019-04-10T15:09:58.008Z,67.00
2019-04-10T15:12:26.648Z,68.00
2019-04-10T15:14:56.150Z,68.10
2019-04-10T15:17:25.222Z,68.10
2019-04-10T15:19:53.977Z,67.40
2019-04-10T15:22:23.488Z,68.50
2019-04-10T15:24:51.988Z,68.90
2019-04-10T15:27:21.546Z,69.00
2019-04-10T15:29:50.188Z,70.50
2019-04-10T15:32:18.657Z,69.40
2019-04-10T15:34:48.267Z,68.70
2019-04-10T15:37:17.201Z,69.00
2019-04-10T15:39:46.378Z,70.90
2019-04-10T15:42:16.143Z,70.20
2019-04-10T15:44:44.703Z,70.50
2019-04-10T15:47:18.355Z,70.60
2019-04-10T15:49:43.318Z,70.30
2019-04-10T15:52:12.111Z,70.90
2019-04-10T15:54:40.660Z,71.20
2019-04-10T15:57:09.125Z,71.80
2019-04-10T15:59:38.559Z,72.00
2019-04-10T16:02:07.802Z,71.30
2019-04-10T16:04:36.389Z,71.50
2019-04-10T16:07:06.157Z,71.60
2019-04-10T16:09:44.911Z,71.80
2019-04-10T16:12:08.041Z,72.30
2019-04-10T16:14:36.605Z,72.40
2019-04-10T16:17:16.945Z,72.40
2019-04-10T16:19:47.346Z,71.90
2019-04-10T16:22:23.474Z,71.90
2019-04-10T16:24:52.015Z,72.20
2019-04-10T16:27:20.568Z,73.00
2019-04-10T16:29:49.077Z,72.30
2019-04-10T16:32:18.833Z,73.10
2019-04-10T16:34:47.324Z,72.50
2019-04-10T16:37:16.736Z,72.20
2019-04-10T16:39:57.415Z,72.30
2019-04-10T16:42:16.599Z,72.20
2019-04-10T16:44:45.651Z,73.10
2019-04-10T16:47:14.191Z,73.40
2019-04-10T16:49:42.671Z,73.70
2019-04-10T16:52:11.106Z,74.20
2019-04-10T16:54:39.544Z,75.00
2019-04-10T16:57:08.002Z,76.20
2019-04-10T16:59:37.492Z,77.00
2019-04-10T17:02:07.196Z,77.80
2019-04-10T17:04:36.145Z,77.70
2019-04-10T17:07:04.744Z,78.50
2019-04-10T17:09:33.178Z,78.60
2019-04-10T17:12:01.644Z,79.20
2019-04-10T17:14:31.325Z,79.10
2019-04-10T17:16:59.950Z,80.60
2019-04-10T17:19:28.828Z,81.80
2019-04-10T17:21:58.694Z,84.30
2019-04-10T17:24:27.301Z,84.60
2019-04-10T17:26:55.719Z,85.80
2019-04-10T17:29:25.115Z,85.90
2019-04-10T17:31:53.678Z,86.00
2019-04-10T17:34:22.902Z,86.30
2019-04-10T17:36:51.559Z,86.60
2019-04-10T17:39:20.718Z,88.10
2019-04-10T17:41:50.223Z,89.10
2019-04-10T17:44:19.011Z,90.00
2019-04-10T17:46:47.442Z,90.10
2019-04-10T17:49:17.017Z,90.30
2019-04-10T17:51:45.958Z,90.70
2019-04-10T17:54:14.780Z,91.20
2019-04-10T17:56:44.351Z,91.30
2019-04-10T17:59:14.100Z,91.50
2019-04-10T18:01:43.246Z,91.80
2019-04-10T18:04:12.110Z,92.10
2019-04-10T18:06:43.904Z,92.30
2019-04-10T18:09:11.721Z,92.30
2019-04-10T18:11:41.552Z,92.20
2019-04-10T18:14:11.159Z,92.20
2019-04-10T18:16:40.173Z,92.10
2019-04-10T18:19:08.915Z,91.30
2019-04-10T18:21:37.382Z,91.40
2019-04-10T18:24:06.244Z,91.50
2019-04-10T18:26:34.730Z,91.50
2019-04-10T18:29:03.228Z,91.50
2019-04-10T18:31:32.623Z,91.60
2019-04-10T18:34:01.442Z,91.60
2019-04-10T18:36:29.948Z,92.10
2019-04-10T18:38:58.375Z,92.00
2019-04-10T18:41:27.677Z,91.50
2019-04-10T18:43:56.358Z,91.30
2019-04-10T18:46:24.954Z,90.70
2019-04-10T18:48:53.426Z,90.40
2019-04-10T18:51:22.104Z,90.60
2019-04-10T18:53:51.326Z,90.60
2019-04-10T18:56:20.774Z,90.40
2019-04-10T18:59:07.905Z,90.20
2019-04-10T19:01:53.603Z,90.10
2019-04-10T19:04:27.373Z,90.00
2019-04-10T19:07:00.834Z,90.30
2019-04-10T19:09:32.483Z,90.10
2019-04-10T19:12:02.489Z,90.40
2019-04-10T19:14:34.831Z,90.50
2019-04-10T19:17:02.350Z,90.90
2019-04-10T19:19:31.088Z,90.90
2019-04-10T19:22:00.025Z,91.00
2019-04-10T19:24:30.216Z,91.20
2019-04-10T19:27:00.047Z,91.20
2019-04-10T19:29:29.598Z,91.30
2019-04-10T19:32:00.486Z,91.30
2019-04-10T19:34:30.287Z,91.70
2019-04-10T19:36:58.701Z,91.90
2019-04-10T19:39:27.129Z,91.80
2019-04-10T19:41:55.818Z,91.90
2019-04-10T19:44:24.334Z,91.90
2019-04-10T19:46:53.581Z,92.00
2019-04-10T19:49:22.181Z,91.80
2019-04-10T19:51:50.915Z,91.60
2019-04-10T19:54:19.371Z,91.70
2019-04-10T19:56:48.756Z,91.80
2019-04-10T19:59:18.689Z,91.90
2019-04-10T20:01:48.467Z,91.90
2019-04-10T20:04:17.391Z,91.90
2019-04-10T20:06:46.790Z,91.90
2019-04-10T20:09:16.601Z,92.00
2019-04-10T20:11:52.053Z,92.10
2019-04-10T20:14:16.760Z,92.10
2019-04-10T20:16:45.345Z,92.00
2019-04-10T20:19:14.976Z,92.00
2019-04-10T20:21:43.988Z,92.00
2019-04-10T20:24:12.543Z,92.00
2019-04-10T20:26:40.958Z,92.00
2019-04-10T20:29:10.859Z,92.00
2019-04-10T20:31:39.631Z,92.20
2019-04-10T20:34:09.411Z,92.40
2019-04-10T20:36:38.897Z,92.50
2019-04-10T20:39:09.431Z,92.50
2019-04-10T20:41:47.632Z,92.70
2019-04-10T20:44:09.244Z,93.00
2019-04-10T20:46:38.210Z,93.00
2019-04-10T20:49:08.385Z,93.00
2019-04-10T20:51:37.730Z,92.90
2019-04-10T20:54:06.645Z,92.90
2019-04-10T20:56:35.061Z,93.00
2019-04-10T20:59:03.572Z,93.00
2019-04-10T21:01:32.989Z,92.80
2019-04-10T21:04:03.029Z,92.70
2019-04-10T21:06:31.864Z,92.70
2019-04-10T21:09:01.113Z,92.80
2019-04-10T21:11:29.965Z,93.00
2019-04-10T21:13:58.730Z,93.30
2019-04-10T21:16:27.405Z,93.70
2019-04-10T21:18:56.018Z,93.80
2019-04-10T21:21:24.662Z,94.00
2019-04-10T21:23:54.202Z,93.80
2019-04-10T21:26:23.936Z,93.80
2019-04-10T21:28:53.710Z,93.90
2019-04-10T21:31:29.756Z,94.00
2019-04-10T21:34:01.188Z,94.10
2019-04-10T21:36:29.771Z,94.20
2019-04-10T21:38:58.215Z,94.10
2019-04-10T21:41:26.885Z,94.00
2019-04-10T21:43:55.878Z,93.50
2019-04-10T21:46:24.389Z,93.10
2019-04-10T21:48:53.106Z,93.00
2019-04-10T21:51:21.566Z,92.70
2019-04-10T21:53:49.974Z,92.70
2019-04-10T21:56:18.663Z,92.70
2019-04-10T21:58:47.117Z,92.70
2019-04-10T22:01:16.170Z,92.70
2019-04-10T22:03:45.569Z,92.70
2019-04-10T22:06:19.860Z,93.00
2019-04-10T22:09:08.720Z,93.00
2019-04-10T22:11:37.440Z,93.20
2019-04-10T22:14:06.161Z,93.20
2019-04-10T22:16:35.754Z,93.30
2019-04-10T22:19:05.817Z,93.40
2019-04-10T22:21:34.366Z,93.30
2019-04-10T22:24:03.131Z,93.10
2019-04-10T22:26:31.908Z,93.00
2019-04-10T22:29:01.123Z,92.90
2019-04-10T22:31:32.731Z,92.70
2019-04-10T22:34:00.816Z,92.50
2019-04-10T22:36:29.375Z,92.40
2019-04-10T22:38:58.372Z,92.40
2019-04-10T22:41:30.642Z,92.80
2019-04-10T22:43:57.092Z,93.10
2019-04-10T22:46:25.893Z,93.10
2019-04-10T22:48:55.711Z,92.90
2019-04-10T22:51:24.780Z,93.30
2019-04-10T22:53:53.533Z,93.10
2019-04-10T22:56:23.106Z,92.90
2019-04-10T22:58:51.648Z,92.90
2019-04-10T23:01:20.716Z,93.10
2019-04-10T23:03:49.440Z,93.00
2019-04-10T23:06:18.108Z,92.90
2019-04-10T23:08:47.499Z,92.80
2019-04-10T23:11:17.430Z,92.60
2019-04-10T23:13:47.958Z,92.80
2019-04-10T23:16:17.521Z,92.80
2019-04-10T23:18:46.247Z,92.80
2019-04-10T23:21:14.709Z,92.60
2019-04-10T23:23:43.348Z,92.70
2019-04-10T23:26:13.121Z,92.90
2019-04-10T23:28:42.226Z,92.80
2019-04-10T23:31:10.914Z,92.60
2019-04-10T23:33:39.878Z,92.40
2019-04-10T23:36:09.650Z,92.60
2019-04-10T23:38:39.411Z,92.50
2019-04-10T23:41:09.383Z,92.30
2019-04-10T23:43:38.001Z,92.40
2019-04-10T23:46:06.492Z,92.30
2019-04-10T23:48:35.174Z,92.10
2019-04-10T23:51:04.850Z,92.30
2019-04-10T23:53:33.430Z,92.30
2019-04-10T23:56:02.200Z,92.30
2019-04-10T23:58:31.795Z,92.30
